createdAt,value
2022-11-10T00:01:09.200Z,48.53
2022-11-10T00:03:38.162Z,46.30
2022-11-10T00:06:06.784Z,45.87
2022-11-10T00:08:34.055Z,44.43
2022-11-10T00:11:07.022Z,48.73
2022-11-10T00:13:56.343Z,51.83
2022-11-10T00:16:42.295Z,48.43
2022-11-10T00:19:09.493Z,44.23
2022-11-10T00:21:39.368Z,46.00
2022-11-10T00:24:06.425Z,49.60
2022-11-10T00:26:33.486Z,42.40
2022-11-10T00:29:00.360Z,43.20
2022-11-10T00:31:28.696Z,43.73
2022-11-10T00:33:56.204Z,43.23
2022-11-10T00:36:23.939Z,43.57
2022-11-10T00:38:51.802Z,49.13
2022-11-10T00:41:18.910Z,47.63
2022-11-10T00:43:46.028Z,45.90
2022-11-10T00:46:13.645Z,46.00
2022-11-10T00:48:40.714Z,44.40
2022-11-10T00:51:09.617Z,55.07
2022-11-10T00:53:36.733Z,48.83
2022-11-10T00:56:03.638Z,44.17
2022-11-10T00:58:30.749Z,50.17
2022-11-10T01:01:04.860Z,42.53
2022-11-10T01:03:33.182Z,45.77
2022-11-10T01:06:08.586Z,45.10
2022-11-10T01:08:36.551Z,46.07
2022-11-10T01:11:05.294Z,46.93
2022-11-10T01:13:33.072Z,44.50
2022-11-10T01:16:08.892Z,46.73
2022-11-10T01:18:36.409Z,37.53
2022-11-10T01:21:04.545Z,48.33
2022-11-10T01:23:32.228Z,44.47
2022-11-10T01:26:01.038Z,44.27
2022-11-10T01:28:28.923Z,47.77
2022-11-10T01:31:01.725Z,41.87
2022-11-10T01:33:29.834Z,43.73
2022-11-10T01:35:56.905Z,43.03
2022-11-10T01:38:24.102Z,45.50
2022-11-10T01:40:51.988Z,45.27
2022-11-10T01:43:19.478Z,45.83
2022-11-10T01:45:59.711Z,46.33
2022-11-10T01:48:49.826Z,46.80
2022-11-10T01:51:25.483Z,46.33
2022-11-10T01:53:59.409Z,44.60
2022-11-10T01:56:30.261Z,47.57
2022-11-10T01:59:00.921Z,44.03
2022-11-10T02:01:27.889Z,43.63
2022-11-10T02:04:01.182Z,45.30
2022-11-10T02:06:35.594Z,42.80
2022-11-10T02:09:02.638Z,45.47
2022-11-10T02:11:31.135Z,47.97
2022-11-10T02:13:58.791Z,48.90
2022-11-10T02:16:26.455Z,47.20
2022-11-10T02:18:53.548Z,44.40
2022-11-10T02:21:21.315Z,42.97
2022-11-10T02:23:49.541Z,44.57
2022-11-10T02:26:22.067Z,40.77
2022-11-10T02:28:49.155Z,47.10
2022-11-10T02:31:16.248Z,49.33
2022-11-10T02:33:43.675Z,45.17
2022-11-10T02:36:11.286Z,49.97
2022-11-10T02:38:38.853Z,43.13
2022-11-10T02:41:06.145Z,49.00
2022-11-10T02:43:33.601Z,44.23
2022-11-10T02:46:00.631Z,45.10
2022-11-10T02:48:27.869Z,45.70
2022-11-10T02:50:54.783Z,40.83
2022-11-10T02:53:22.102Z,44.93
2022-11-10T02:55:49.221Z,45.87
2022-11-10T02:58:16.072Z,41.63
2022-11-10T03:00:42.977Z,48.27
2022-11-10T03:03:10.068Z,45.43
2022-11-10T03:05:36.913Z,45.40
2022-11-10T03:08:04.434Z,48.27
2022-11-10T03:10:32.008Z,47.83
2022-11-10T03:13:01.731Z,42.33
2022-11-10T03:15:29.484Z,40.40
2022-11-10T03:17:57.414Z,43.77
2022-11-10T03:20:24.393Z,47.10
2022-11-10T03:22:51.491Z,45.60
2022-11-10T03:25:18.904Z,43.80
2022-11-10T03:27:46.310Z,40.53
2022-11-10T03:30:13.414Z,44.13
2022-11-10T03:32:40.430Z,47.37
2022-11-10T03:35:07.830Z,46.97
2022-11-10T03:37:35.923Z,43.27
2022-11-10T03:40:02.835Z,45.63
2022-11-10T03:42:29.984Z,41.10
2022-11-10T03:44:57.066Z,44.67
2022-11-10T03:47:24.044Z,46.13
2022-11-10T03:49:51.082Z,47.50
2022-11-10T03:52:18.996Z,44.73
2022-11-10T03:54:45.992Z,48.53
2022-11-10T03:57:13.164Z,55.60
2022-11-10T03:59:40.048Z,48.03
2022-11-10T04:02:07.223Z,51.10
2022-11-10T04:04:53.073Z,49.30
2022-11-10T04:07:38.585Z,51.87
2022-11-10T04:10:06.299Z,51.70
2022-11-10T04:12:51.689Z,47.17
2022-11-10T04:15:37.423Z,44.07
2022-11-10T04:18:24.771Z,45.77
2022-11-10T04:21:01.055Z,46.77
2022-11-10T04:23:34.977Z,44.90
2022-11-10T04:26:24.996Z,45.23
2022-11-10T04:28:54.181Z,50.17
2022-11-10T04:31:22.997Z,43.33
2022-11-10T04:33:50.932Z,44.63
2022-11-10T04:36:20.239Z,44.13
2022-11-10T04:38:47.614Z,45.00
2022-11-10T04:41:14.996Z,43.50
2022-11-10T04:43:43.097Z,49.80
2022-11-10T04:46:25.138Z,45.53
2022-11-10T04:48:52.818Z,47.60
2022-11-10T04:51:21.613Z,49.33
2022-11-10T04:53:48.835Z,44.73
2022-11-10T04:56:21.447Z,48.73
2022-11-10T04:58:49.251Z,47.97
2022-11-10T05:01:19.665Z,47.97
2022-11-10T05:03:47.342Z,53.07
2022-11-10T05:06:14.779Z,49.40
2022-11-10T05:08:43.276Z,45.73
2022-11-10T05:11:10.871Z,47.37
2022-11-10T05:13:38.464Z,47.50
2022-11-10T05:16:06.224Z,48.07
2022-11-10T05:18:33.582Z,45.33
2022-11-10T05:21:00.544Z,47.67
2022-11-10T05:23:39.793Z,49.33
2022-11-10T05:26:12.412Z,50.60
2022-11-10T05:28:41.278Z,49.77
2022-11-10T05:31:08.776Z,52.67
2022-11-10T05:33:37.889Z,46.00
2022-11-10T05:36:06.307Z,49.77
2022-11-10T05:38:33.231Z,50.70
2022-11-10T05:41:00.364Z,54.13
2022-11-10T05:43:27.262Z,51.40
2022-11-10T05:45:54.364Z,49.33
2022-11-10T05:48:21.278Z,45.50
2022-11-10T05:50:48.437Z,45.07
2022-11-10T05:53:15.601Z,51.47
2022-11-10T05:55:42.762Z,48.83
2022-11-10T05:58:10.167Z,55.20
2022-11-10T06:00:37.397Z,53.60
2022-11-10T06:03:16.568Z,50.40
2022-11-10T06:05:43.650Z,49.73
2022-11-10T06:08:11.278Z,53.23
2022-11-10T06:10:38.907Z,51.87
2022-11-10T06:13:06.480Z,49.47
2022-11-10T06:15:33.862Z,49.30
2022-11-10T06:18:01.044Z,45.57
2022-11-10T06:20:28.566Z,49.00
2022-11-10T06:23:05.121Z,47.07
2022-11-10T06:25:34.560Z,46.70
2022-11-10T06:28:01.966Z,51.63
2022-11-10T06:30:30.048Z,45.60
2022-11-10T06:32:57.345Z,48.47
2022-11-10T06:35:25.772Z,47.70
2022-11-10T06:38:07.072Z,46.40
2022-11-10T06:40:34.357Z,47.57
2022-11-10T06:43:01.887Z,50.83
2022-11-10T06:45:29.387Z,47.63
2022-11-10T06:48:13.851Z,47.17
2022-11-10T06:50:40.936Z,46.37
2022-11-10T06:53:08.108Z,51.77
2022-11-10T06:55:35.039Z,51.60
2022-11-10T06:58:01.939Z,49.83
2022-11-10T07:00:29.715Z,46.87
2022-11-10T07:03:07.977Z,43.20
2022-11-10T07:05:36.510Z,52.10
2022-11-10T07:08:09.704Z,42.90
2022-11-10T07:10:37.536Z,43.03
2022-11-10T07:13:05.234Z,42.27
2022-11-10T07:15:33.620Z,42.83
2022-11-10T07:18:02.544Z,45.27
2022-11-10T07:20:30.417Z,47.67
2022-11-10T07:23:02.085Z,45.50
2022-11-10T07:25:30.866Z,43.23
2022-11-10T07:28:02.264Z,45.70
2022-11-10T07:30:30.813Z,40.60
2022-11-10T07:33:11.793Z,45.87
2022-11-10T07:35:39.068Z,45.77
2022-11-10T07:38:09.380Z,50.83
2022-11-10T07:40:37.134Z,47.27
2022-11-10T07:43:04.776Z,48.47
2022-11-10T07:45:32.640Z,41.13
2022-11-10T07:48:03.933Z,48.73
2022-11-10T07:50:32.237Z,43.03
2022-11-10T07:53:07.230Z,42.47
2022-11-10T07:55:36.233Z,48.87
2022-11-10T07:58:03.330Z,40.87
2022-11-10T08:00:30.459Z,41.67
2022-11-10T08:03:10.163Z,40.83
2022-11-10T08:05:37.933Z,40.07
2022-11-10T08:08:05.440Z,41.70
2022-11-10T08:10:34.128Z,41.47
2022-11-10T08:13:03.102Z,42.83
2022-11-10T08:15:31.846Z,37.60
2022-11-10T08:18:19.952Z,42.90
2022-11-10T08:20:46.918Z,41.33
2022-11-10T08:23:14.600Z,43.57
2022-11-10T08:25:42.004Z,37.20
2022-11-10T08:28:15.199Z,37.57
2022-11-10T08:30:44.630Z,41.53
2022-11-10T08:33:13.788Z,38.83
2022-11-10T08:35:43.579Z,40.50
2022-11-10T08:38:22.302Z,38.80
2022-11-10T08:40:49.640Z,41.60
2022-11-10T08:43:17.840Z,40.63
2022-11-10T08:45:45.922Z,41.87
2022-11-10T08:48:12.996Z,48.07
2022-11-10T08:50:40.214Z,46.23
2022-11-10T08:53:12.654Z,43.33
2022-11-10T08:55:40.553Z,44.13
2022-11-10T08:58:11.336Z,41.80
2022-11-10T09:00:38.447Z,33.67
2022-11-10T09:03:14.267Z,44.80
2022-11-10T09:05:41.689Z,39.87
2022-11-10T09:08:09.473Z,36.60
2022-11-10T09:10:38.745Z,35.83
2022-11-10T09:13:07.031Z,34.00
2022-11-10T09:15:35.176Z,38.63
2022-11-10T09:18:03.988Z,38.93
2022-11-10T09:20:32.720Z,35.00
2022-11-10T09:23:17.372Z,36.27
2022-11-10T09:25:50.216Z,34.10
2022-11-10T09:28:18.079Z,37.87
2022-11-10T09:30:49.863Z,34.93
2022-11-10T09:33:17.641Z,34.30
2022-11-10T09:35:45.106Z,33.57
2022-11-10T09:38:12.455Z,34.30
2022-11-10T09:41:06.269Z,35.07
2022-11-10T09:44:02.158Z,34.00
2022-11-10T09:47:05.744Z,37.63
2022-11-10T09:49:58.104Z,40.67
2022-11-10T09:52:29.526Z,36.77
2022-11-10T09:55:24.180Z,38.73
2022-11-10T09:57:56.100Z,33.03
2022-11-10T10:00:23.099Z,34.03
2022-11-10T10:02:56.309Z,34.83
2022-11-10T10:05:51.686Z,29.63
2022-11-10T10:08:33.921Z,32.40
2022-11-10T10:11:06.704Z,33.63
2022-11-10T10:13:51.948Z,34.17
2022-11-10T10:16:48.877Z,36.93
2022-11-10T10:19:42.682Z,35.50
2022-11-10T10:22:32.417Z,27.27
2022-11-10T10:25:03.471Z,32.07
2022-11-10T10:27:32.922Z,28.00
2022-11-10T10:30:00.164Z,27.83
2022-11-10T10:32:27.699Z,31.33
2022-11-10T10:34:54.737Z,28.20
2022-11-10T10:37:45.263Z,23.43
2022-11-10T10:40:23.494Z,23.10
2022-11-10T10:42:51.216Z,25.10
2022-11-10T10:45:29.857Z,28.07
2022-11-10T10:47:58.417Z,20.70
2022-11-10T10:50:35.676Z,19.10
2022-11-10T10:53:22.929Z,21.80
2022-11-10T10:56:01.437Z,18.50
2022-11-10T10:58:29.573Z,24.47
2022-11-10T11:01:21.280Z,19.70
2022-11-10T11:03:51.407Z,21.83
2022-11-10T11:06:20.543Z,20.17
2022-11-10T11:09:01.011Z,17.57
2022-11-10T11:11:31.675Z,19.27
2022-11-10T11:14:23.653Z,19.53
2022-11-10T11:16:58.293Z,21.80
2022-11-10T11:19:37.051Z,19.70
2022-11-10T11:22:29.167Z,15.30
2022-11-10T11:25:15.651Z,18.13
2022-11-10T11:28:20.592Z,15.57
2022-11-10T11:31:03.579Z,18.58
2022-11-10T11:33:47.032Z,17.13
2022-11-10T11:36:21.500Z,17.87
2022-11-10T11:39:17.759Z,16.57
2022-11-10T11:42:02.101Z,16.93
2022-11-10T11:44:46.944Z,20.03
2022-11-10T11:47:32.405Z,18.03
2022-11-10T11:50:20.683Z,14.45
2022-11-10T11:53:26.009Z,17.10
2022-11-10T11:56:19.284Z,20.13
2022-11-10T11:58:51.429Z,14.48
2022-11-10T12:01:46.351Z,14.23
2022-11-10T12:04:23.363Z,12.63
2022-11-10T12:06:59.868Z,14.20
2022-11-10T12:09:35.890Z,19.90
2022-11-10T12:12:29.984Z,15.57
2022-11-10T12:15:07.989Z,14.47
2022-11-10T12:17:53.829Z,18.07
2022-11-10T12:20:42.457Z,15.77
2022-11-10T12:23:31.008Z,15.67
2022-11-10T12:26:17.794Z,15.97
2022-11-10T12:28:50.209Z,15.90
2022-11-10T12:31:20.950Z,18.73
2022-11-10T12:33:57.347Z,14.37
2022-11-10T12:36:27.747Z,17.50
2022-11-10T12:39:18.948Z,12.00
2022-11-10T12:41:58.067Z,14.93
2022-11-10T12:44:41.604Z,15.60
2022-11-10T12:47:15.568Z,13.93
2022-11-10T12:49:54.113Z,14.47
2022-11-10T12:52:32.120Z,15.70
2022-11-10T12:55:00.314Z,15.77
2022-11-10T12:57:28.854Z,15.43
2022-11-10T13:00:03.220Z,14.57
2022-11-10T13:02:49.446Z,14.77
2022-11-10T13:05:36.739Z,15.13
2022-11-10T13:08:16.908Z,17.60
2022-11-10T13:11:03.585Z,18.50
2022-11-10T13:13:39.814Z,14.70
2022-11-10T13:16:09.700Z,14.43
2022-11-10T13:18:36.517Z,15.83
2022-11-10T13:21:03.403Z,17.27
2022-11-10T13:23:57.637Z,14.83
2022-11-10T13:26:39.766Z,14.00
2022-11-10T13:29:47.683Z,16.93
2022-11-10T13:32:14.531Z,13.40
2022-11-10T13:34:48.800Z,13.30
2022-11-10T13:37:33.765Z,14.23
2022-11-10T13:40:18.580Z,13.47
2022-11-10T13:43:11.354Z,15.50
2022-11-10T13:45:43.915Z,17.50
2022-11-10T13:48:13.550Z,14.93
2022-11-10T13:51:17.329Z,14.47
2022-11-10T13:54:20.503Z,12.03
2022-11-10T13:56:59.380Z,17.40
2022-11-10T13:59:28.858Z,14.10
2022-11-10T14:02:38.885Z,14.20
2022-11-10T14:05:08.371Z,14.03
2022-11-10T14:07:39.452Z,15.53
2022-11-10T14:10:14.132Z,14.13
2022-11-10T14:12:53.580Z,14.57
2022-11-10T14:15:30.000Z,14.93
2022-11-10T14:17:58.173Z,16.40
2022-11-10T14:20:43.417Z,14.80
2022-11-10T14:23:24.942Z,12.30
2022-11-10T14:26:00.489Z,17.43
2022-11-10T14:28:28.522Z,13.70
2022-11-10T14:30:57.012Z,11.27
2022-11-10T14:33:25.706Z,14.53
2022-11-10T14:35:55.496Z,15.00
2022-11-10T14:38:34.032Z,13.47
2022-11-10T14:41:02.687Z,15.03
2022-11-10T14:43:33.636Z,11.53
2022-11-10T14:46:01.721Z,13.00
2022-11-10T14:48:31.900Z,16.60
2022-11-10T14:51:13.924Z,15.33
2022-11-10T14:53:53.367Z,14.00
2022-11-10T14:56:26.048Z,18.10
2022-11-10T14:58:53.841Z,15.57
2022-11-10T15:01:35.222Z,15.67
2022-11-10T15:04:04.519Z,20.37
2022-11-10T15:06:32.387Z,20.27
2022-11-10T15:08:59.528Z,19.87
2022-11-10T15:11:41.391Z,22.57
2022-11-10T15:14:38.283Z,22.30
2022-11-10T15:17:18.166Z,24.07
2022-11-10T15:19:48.738Z,21.60
2022-11-10T15:22:35.024Z,24.93
2022-11-10T15:25:15.976Z,28.80
2022-11-10T15:27:54.367Z,29.27
2022-11-10T15:30:23.398Z,30.50
2022-11-10T15:32:51.414Z,29.57
2022-11-10T15:35:30.749Z,27.93
2022-11-10T15:37:59.608Z,26.77
2022-11-10T15:40:47.903Z,21.40
2022-11-10T15:43:22.243Z,22.60
2022-11-10T15:45:54.696Z,20.67
2022-11-10T15:48:22.029Z,17.90
2022-11-10T15:50:56.265Z,23.33
2022-11-10T15:53:32.796Z,20.00
2022-11-10T15:55:59.708Z,17.57
2022-11-10T15:58:27.931Z,17.90
2022-11-10T16:00:55.114Z,17.10
2022-11-10T16:03:23.497Z,25.33
2022-11-10T16:05:50.689Z,22.20
2022-11-10T16:08:20.877Z,21.93
2022-11-10T16:10:51.410Z,24.90
2022-11-10T16:13:26.348Z,24.27
2022-11-10T16:15:53.956Z,22.70
2022-11-10T16:18:23.692Z,22.87
2022-11-10T16:20:52.025Z,18.47
2022-11-10T16:23:19.066Z,17.50
2022-11-10T16:25:48.902Z,18.80
2022-11-10T16:28:20.975Z,21.07
2022-11-10T16:30:48.105Z,19.80
2022-11-10T16:33:16.848Z,13.33
2022-11-10T16:35:44.339Z,18.80
2022-11-10T16:38:27.419Z,16.03
2022-11-10T16:40:59.419Z,16.20
2022-11-10T16:43:27.241Z,18.47
2022-11-10T16:45:56.704Z,16.63
2022-11-10T16:48:28.122Z,22.37
2022-11-10T16:50:57.881Z,17.97
2022-11-10T16:53:27.839Z,20.47
2022-11-10T16:55:54.738Z,20.13
2022-11-10T16:58:22.017Z,20.40
2022-11-10T17:00:49.360Z,20.70
2022-11-10T17:03:32.573Z,21.80
2022-11-10T17:06:00.068Z,27.93
2022-11-10T17:08:30.961Z,21.03
2022-11-10T17:10:57.905Z,23.60
2022-11-10T17:13:25.875Z,24.77
2022-11-10T17:15:54.799Z,20.00
2022-11-10T17:18:26.383Z,20.83
2022-11-10T17:20:53.544Z,22.83
2022-11-10T17:23:23.441Z,24.10
2022-11-10T17:25:51.169Z,24.40
2022-11-10T17:28:18.967Z,21.87
2022-11-10T17:30:46.360Z,21.60
2022-11-10T17:33:13.354Z,22.70
2022-11-10T17:35:46.419Z,22.00
2022-11-10T17:38:22.874Z,22.07
2022-11-10T17:40:50.359Z,25.53
2022-11-10T17:43:17.730Z,22.13
2022-11-10T17:45:44.902Z,21.23
2022-11-10T17:48:11.972Z,23.20
2022-11-10T17:50:41.112Z,20.97
2022-11-10T17:53:23.272Z,24.13
2022-11-10T17:55:50.672Z,27.03
2022-11-10T17:58:18.386Z,27.13
2022-11-10T18:00:46.053Z,30.87
2022-11-10T18:03:21.244Z,27.57
2022-11-10T18:05:48.899Z,30.23
2022-11-10T18:08:17.125Z,34.53
2022-11-10T18:10:52.127Z,31.63
2022-11-10T18:13:19.134Z,26.00
2022-11-10T18:15:47.728Z,20.90
2022-11-10T18:18:16.802Z,27.20
2022-11-10T18:20:44.906Z,22.97
2022-11-10T18:23:12.621Z,25.97
2022-11-10T18:25:40.911Z,22.93
2022-11-10T18:28:09.300Z,19.73
2022-11-10T18:30:38.172Z,31.00
2022-11-10T18:33:06.273Z,28.57
2022-11-10T18:35:37.863Z,31.47
2022-11-10T18:38:05.697Z,25.77
2022-11-10T18:40:33.385Z,27.10
2022-11-10T18:43:06.976Z,36.87
2022-11-10T18:45:36.877Z,42.30
2022-11-10T18:48:04.332Z,53.90
2022-11-10T18:50:31.493Z,41.60
2022-11-10T18:52:58.650Z,41.37
2022-11-10T18:55:25.835Z,33.13
2022-11-10T18:57:53.080Z,37.23
2022-11-10T19:00:20.735Z,31.70
2022-11-10T19:02:47.838Z,37.27
2022-11-10T19:05:14.857Z,29.93
2022-11-10T19:07:42.362Z,30.63
2022-11-10T19:10:10.294Z,25.40
2022-11-10T19:12:37.182Z,27.27
2022-11-10T19:15:05.557Z,23.13
2022-11-10T19:17:34.820Z,25.97
2022-11-10T19:20:02.914Z,23.20
2022-11-10T19:22:30.949Z,27.20
2022-11-10T19:25:08.103Z,29.87
2022-11-10T19:27:35.579Z,29.53
2022-11-10T19:30:02.691Z,31.53
2022-11-10T19:32:29.987Z,29.57
2022-11-10T19:34:56.899Z,28.30
2022-11-10T19:37:24.070Z,29.40
2022-11-10T19:39:51.194Z,34.00
2022-11-10T19:42:18.296Z,38.73
2022-11-10T19:44:48.240Z,35.07
2022-11-10T19:47:15.332Z,34.83
2022-11-10T19:49:42.217Z,36.47
2022-11-10T19:52:09.620Z,40.50
2022-11-10T19:54:36.696Z,41.43
2022-11-10T19:57:03.772Z,43.73
2022-11-10T19:59:32.571Z,29.27
2022-11-10T20:01:59.742Z,31.57
2022-11-10T20:04:26.961Z,34.77
2022-11-10T20:07:14.503Z,45.07
2022-11-10T20:09:41.630Z,40.23
2022-11-10T20:12:08.921Z,36.23
2022-11-10T20:14:36.058Z,29.77
2022-11-10T20:17:03.072Z,34.67
2022-11-10T20:19:29.921Z,34.40
2022-11-10T20:21:56.769Z,34.03
2022-11-10T20:24:23.947Z,41.73
2022-11-10T20:26:51.433Z,29.10
2022-11-10T20:29:18.566Z,29.87
2022-11-10T20:31:45.723Z,38.73
2022-11-10T20:34:12.882Z,40.20
2022-11-10T20:36:40.951Z,42.30
2022-11-10T20:39:08.349Z,43.67
2022-11-10T20:41:35.314Z,42.50
2022-11-10T20:44:03.370Z,41.83
2022-11-10T20:46:53.361Z,49.77
2022-11-10T20:49:17.553Z,39.60
2022-11-10T20:51:44.734Z,40.27
2022-11-10T20:54:15.102Z,45.87
2022-11-10T20:56:42.063Z,30.43
2022-11-10T20:59:08.954Z,36.60
2022-11-10T21:01:37.729Z,30.70
2022-11-10T21:04:06.204Z,35.17
2022-11-10T21:06:33.252Z,30.30
2022-11-10T21:09:00.376Z,32.30
2022-11-10T21:11:45.899Z,29.67
2022-11-10T21:14:13.047Z,33.80
2022-11-10T21:16:40.430Z,27.87
2022-11-10T21:19:07.497Z,28.47
2022-11-10T21:21:34.898Z,31.43
2022-11-10T21:24:09.419Z,29.80
2022-11-10T21:26:37.741Z,29.87
2022-11-10T21:29:07.726Z,31.17
2022-11-10T21:31:35.184Z,23.87
2022-11-10T21:34:02.321Z,36.87
2022-11-10T21:36:29.882Z,37.10
2022-11-10T21:38:58.085Z,29.63
2022-11-10T21:41:27.375Z,31.53
2022-11-10T21:43:54.399Z,56.93
2022-11-10T21:46:21.501Z,49.53
2022-11-10T21:48:50.716Z,37.80
2022-11-10T21:51:19.837Z,30.43
2022-11-10T21:53:47.406Z,30.07
2022-11-10T21:56:14.437Z,31.60
2022-11-10T21:58:41.668Z,28.30
2022-11-10T22:01:19.385Z,31.53
2022-11-10T22:03:47.096Z,36.50
2022-11-10T22:06:16.545Z,34.63
2022-11-10T22:08:45.946Z,32.97
2022-11-10T22:11:38.896Z,35.47
2022-11-10T22:14:32.019Z,34.33
2022-11-10T22:17:19.180Z,32.87
2022-11-10T22:19:46.302Z,27.57
2022-11-10T22:22:14.446Z,26.57
2022-11-10T22:24:41.634Z,30.73
2022-11-10T22:27:08.815Z,32.87
2022-11-10T22:29:36.388Z,34.40
2022-11-10T22:32:03.750Z,30.33
2022-11-10T22:34:30.756Z,30.93
2022-11-10T22:36:59.590Z,29.13
2022-11-10T22:39:46.698Z,30.10
2022-11-10T22:42:32.899Z,35.27
2022-11-10T22:45:00.025Z,31.03
2022-11-10T22:47:48.036Z,29.33
2022-11-10T22:50:15.196Z,28.13
2022-11-10T22:52:42.367Z,29.43
2022-11-10T22:55:09.710Z,28.70
2022-11-10T22:57:36.644Z,28.80
2022-11-10T23:00:04.846Z,26.53
2022-11-10T23:02:31.867Z,28.27
2022-11-10T23:04:59.058Z,27.73
2022-11-10T23:07:26.175Z,30.67
2022-11-10T23:09:53.300Z,31.40
2022-11-10T23:12:20.191Z,31.17
2022-11-10T23:14:47.280Z,24.67
2022-11-10T23:17:14.253Z,26.23
2022-11-10T23:19:41.384Z,29.10
2022-11-10T23:22:08.245Z,23.90
2022-11-10T23:24:35.389Z,27.03
2022-11-10T23:27:02.541Z,26.37
2022-11-10T23:29:29.677Z,30.60
2022-11-10T23:31:58.771Z,29.30
2022-11-10T23:34:25.723Z,30.83
2022-11-10T23:36:53.784Z,25.80
2022-11-10T23:39:20.850Z,28.47
2022-11-10T23:41:48.112Z,27.97
2022-11-10T23:44:15.216Z,27.73
2022-11-10T23:46:42.340Z,25.20
2022-11-10T23:49:09.451Z,32.67
2022-11-10T23:51:36.306Z,28.60
2022-11-10T23:54:03.507Z,30.83
2022-11-10T23:56:30.747Z,34.80
2022-11-10T23:58:57.988Z,31.43
